sensor_id;sensor_type;location;lat;lon;timestamp;P1;durP1;ratioP1;P2;durP2;ratioP2
17524;SDS011;40431;52.198;9.902;2022-09-04T00:00:07;2.30;;;2.10;;
17524;SDS011;40431;52.198;9.902;2022-09-04T00:02:52;3.47;;;2.67;;
17524;SDS011;40431;52.198;9.902;2022-09-04T00:05:30;3.70;;;2.20;;
17524;SDS011;40431;52.198;9.902;2022-09-04T00:08:04;6.17;;;2.53;;
17524;SDS011;40431;52.198;9.902;2022-09-04T00:10:47;3.80;;;2.13;;
17524;SDS011;40431;52.198;9.902;2022-09-04T00:13:20;2.10;;;2.00;;
17524;SDS011;40431;52.198;9.902;2022-09-04T00:15:50;5.73;;;2.40;;
17524;SDS011;40431;52.198;9.902;2022-09-04T00:18:23;4.00;;;2.43;;
17524;SDS011;40431;52.198;9.902;2022-09-04T00:20:59;2.80;;;2.30;;
17524;SDS011;40431;52.198;9.902;2022-09-04T00:23:30;4.17;;;2.40;;
17524;SDS011;40431;52.198;9.902;2022-09-04T00:26:07;3.33;;;2.07;;
17524;SDS011;40431;52.198;9.902;2022-09-04T00:28:43;4.33;;;2.73;;
17524;SDS011;40431;52.198;9.902;2022-09-04T00:31:13;4.47;;;2.63;;
17524;SDS011;40431;52.198;9.902;2022-09-04T00:33:50;2.40;;;2.10;;
17524;SDS011;40431;52.198;9.902;2022-09-04T00:36:25;2.93;;;2.40;;
17524;SDS011;40431;52.198;9.902;2022-09-04T00:38:54;3.03;;;2.13;;
17524;SDS011;40431;52.198;9.902;2022-09-04T00:41:27;5.93;;;2.40;;
17524;SDS011;40431;52.198;9.902;2022-09-04T00:44:02;4.97;;;2.20;;
17524;SDS011;40431;52.198;9.902;2022-09-04T00:46:48;3.33;;;2.23;;
17524;SDS011;40431;52.198;9.902;2022-09-04T00:49:27;3.90;;;2.37;;
17524;SDS011;40431;52.198;9.902;2022-09-04T00:52:08;2.63;;;2.10;;
17524;SDS011;40431;52.198;9.902;2022-09-04T00:54:46;3.67;;;2.30;;
17524;SDS011;40431;52.198;9.902;2022-09-04T00:57:45;2.60;;;2.40;;
17524;SDS011;40431;52.198;9.902;2022-09-04T01:00:22;3.73;;;2.10;;
17524;SDS011;40431;52.198;9.902;2022-09-04T01:02:56;10.53;;;2.70;;
17524;SDS011;40431;52.198;9.902;2022-09-04T01:05:37;2.00;;;1.90;;
17524;SDS011;40431;52.198;9.902;2022-09-04T01:08:10;2.50;;;2.30;;
17524;SDS011;40431;52.198;9.902;2022-09-04T01:10:48;9.70;;;2.40;;
17524;SDS011;40431;52.198;9.902;2022-09-04T01:13:27;4.17;;;2.40;;
17524;SDS011;40431;52.198;9.902;2022-09-04T01:16:00;3.73;;;2.90;;
17524;SDS011;40431;52.198;9.902;2022-09-04T01:18:31;3.27;;;2.67;;
17524;SDS011;40431;52.198;9.902;2022-09-04T01:21:05;3.07;;;2.30;;
17524;SDS011;40431;52.198;9.902;2022-09-04T01:23:48;6.07;;;2.53;;
17524;SDS011;40431;52.198;9.902;2022-09-04T01:26:33;5.03;;;2.53;;
17524;SDS011;40431;52.198;9.902;2022-09-04T01:29:14;2.90;;;2.60;;
17524;SDS011;40431;52.198;9.902;2022-09-04T01:31:49;2.67;;;2.40;;
17524;SDS011;40431;52.198;9.902;2022-09-04T01:34:25;5.13;;;2.40;;
17524;SDS011;40431;52.198;9.902;2022-09-04T01:37:02;3.37;;;2.43;;
17524;SDS011;40431;52.198;9.902;2022-09-04T01:39:42;2.30;;;2.20;;
17524;SDS011;40431;52.198;9.902;2022-09-04T01:42:16;2.80;;;2.40;;
17524;SDS011;40431;52.198;9.902;2022-09-04T01:44:48;4.93;;;2.73;;
17524;SDS011;40431;52.198;9.902;2022-09-04T01:47:15;2.83;;;2.30;;
17524;SDS011;40431;52.198;9.902;2022-09-04T01:49:52;2.93;;;2.40;;
17524;SDS011;40431;52.198;9.902;2022-09-04T01:52:34;3.57;;;2.53;;
17524;SDS011;40431;52.198;9.902;2022-09-04T01:55:07;2.53;;;2.33;;
17524;SDS011;40431;52.198;9.902;2022-09-04T01:57:47;4.43;;;3.07;;
17524;SDS011;40431;52.198;9.902;2022-09-04T02:00:25;3.67;;;2.60;;
17524;SDS011;40431;52.198;9.902;2022-09-04T02:02:58;3.10;;;2.50;;
17524;SDS011;40431;52.198;9.902;2022-09-04T02:05:36;3.37;;;2.77;;
17524;SDS011;40431;52.198;9.902;2022-09-04T02:08:15;2.67;;;2.43;;
17524;SDS011;40431;52.198;9.902;2022-09-04T02:10:55;3.07;;;2.80;;
17524;SDS011;40431;52.198;9.902;2022-09-04T02:13:30;2.77;;;2.57;;
17524;SDS011;40431;52.198;9.902;2022-09-04T02:16:08;3.53;;;2.77;;
17524;SDS011;40431;52.198;9.902;2022-09-04T02:18:43;2.63;;;2.43;;
17524;SDS011;40431;52.198;9.902;2022-09-04T02:21:19;4.70;;;2.60;;
17524;SDS011;40431;52.198;9.902;2022-09-04T02:23:56;2.90;;;2.47;;
17524;SDS011;40431;52.198;9.902;2022-09-04T02:26:32;3.07;;;2.77;;
17524;SDS011;40431;52.198;9.902;2022-09-04T02:29:04;2.77;;;2.53;;
17524;SDS011;40431;52.198;9.902;2022-09-04T02:31:41;2.93;;;2.70;;
17524;SDS011;40431;52.198;9.902;2022-09-04T02:34:15;2.90;;;2.60;;
17524;SDS011;40431;52.198;9.902;2022-09-04T02:36:52;3.03;;;2.60;;
17524;SDS011;40431;52.198;9.902;2022-09-04T02:39:29;3.17;;;2.87;;
17524;SDS011;40431;52.198;9.902;2022-09-04T02:42:09;5.17;;;2.60;;
17524;SDS011;40431;52.198;9.902;2022-09-04T02:44:47;4.50;;;3.17;;
17524;SDS011;40431;52.198;9.902;2022-09-04T02:47:25;3.60;;;3.30;;
17524;SDS011;40431;52.198;9.902;2022-09-04T02:49:57;3.67;;;2.83;;
17524;SDS011;40431;52.198;9.902;2022-09-04T02:52:36;3.70;;;2.97;;
17524;SDS011;40431;52.198;9.902;2022-09-04T02:55:19;3.57;;;3.10;;
17524;SDS011;40431;52.198;9.902;2022-09-04T02:57:59;3.30;;;3.00;;
17524;SDS011;40431;52.198;9.902;2022-09-04T03:00:39;4.17;;;3.10;;
17524;SDS011;40431;52.198;9.902;2022-09-04T03:03:11;3.00;;;2.73;;
17524;SDS011;40431;52.198;9.902;2022-09-04T03:05:43;3.53;;;3.00;;
17524;SDS011;40431;52.198;9.902;2022-09-04T03:08:15;6.10;;;2.90;;
17524;SDS011;40431;52.198;9.902;2022-09-04T03:10:47;3.03;;;2.80;;
17524;SDS011;40431;52.198;9.902;2022-09-04T03:13:21;4.93;;;3.30;;
17524;SDS011;40431;52.198;9.902;2022-09-04T03:15:56;4.90;;;2.73;;
17524;SDS011;40431;52.198;9.902;2022-09-04T03:18:29;4.60;;;2.97;;
17524;SDS011;40431;52.198;9.902;2022-09-04T03:21:02;3.40;;;3.00;;
17524;SDS011;40431;52.198;9.902;2022-09-04T03:23:35;3.30;;;3.10;;
17524;SDS011;40431;52.198;9.902;2022-09-04T03:26:17;3.53;;;2.97;;
17524;SDS011;40431;52.198;9.902;2022-09-04T03:28:53;3.37;;;3.17;;
17524;SDS011;40431;52.198;9.902;2022-09-04T03:31:28;3.10;;;2.80;;
17524;SDS011;40431;52.198;9.902;2022-09-04T03:34:02;3.40;;;2.90;;
17524;SDS011;40431;52.198;9.902;2022-09-04T03:36:41;5.00;;;3.30;;
17524;SDS011;40431;52.198;9.902;2022-09-04T03:39:20;3.50;;;3.20;;
17524;SDS011;40431;52.198;9.902;2022-09-04T03:41:57;4.73;;;3.60;;
17524;SDS011;40431;52.198;9.902;2022-09-04T03:44:36;3.80;;;3.40;;
17524;SDS011;40431;52.198;9.902;2022-09-04T03:47:18;3.17;;;2.87;;
17524;SDS011;40431;52.198;9.902;2022-09-04T03:49:58;2.93;;;2.73;;
17524;SDS011;40431;52.198;9.902;2022-09-04T03:52:39;2.90;;;2.70;;
17524;SDS011;40431;52.198;9.902;2022-09-04T03:55:24;3.73;;;2.93;;
17524;SDS011;40431;52.198;9.902;2022-09-04T03:58:04;15.67;;;3.50;;
17524;SDS011;40431;52.198;9.902;2022-09-04T04:00:40;3.10;;;2.80;;
17524;SDS011;40431;52.198;9.902;2022-09-04T04:03:25;3.13;;;2.93;;
17524;SDS011;40431;52.198;9.902;2022-09-04T04:06:05;3.73;;;2.97;;
17524;SDS011;40431;52.198;9.902;2022-09-04T04:08:45;3.70;;;3.40;;
17524;SDS011;40431;52.198;9.902;2022-09-04T04:11:33;4.63;;;3.27;;
17524;SDS011;40431;52.198;9.902;2022-09-04T04:14:14;3.50;;;3.20;;
17524;SDS011;40431;52.198;9.902;2022-09-04T04:16:57;3.80;;;3.60;;
17524;SDS011;40431;52.198;9.902;2022-09-04T04:19:41;5.20;;;3.40;;
17524;SDS011;40431;52.198;9.902;2022-09-04T04:22:24;3.97;;;3.40;;
17524;SDS011;40431;52.198;9.902;2022-09-04T04:25:17;3.27;;;2.97;;
17524;SDS011;40431;52.198;9.902;2022-09-04T04:27:58;7.93;;;4.00;;
17524;SDS011;40431;52.198;9.902;2022-09-04T04:30:33;5.03;;;3.73;;
17524;SDS011;40431;52.198;9.902;2022-09-04T04:33:14;5.27;;;3.73;;
17524;SDS011;40431;52.198;9.902;2022-09-04T04:35:55;3.60;;;3.20;;
17524;SDS011;40431;52.198;9.902;2022-09-04T04:38:35;3.17;;;2.97;;
17524;SDS011;40431;52.198;9.902;2022-09-04T04:44:21;5.87;;;3.47;;
17524;SDS011;40431;52.198;9.902;2022-09-04T04:47:16;3.40;;;3.10;;
17524;SDS011;40431;52.198;9.902;2022-09-04T04:49:59;3.90;;;3.60;;
17524;SDS011;40431;52.198;9.902;2022-09-04T04:52:37;3.60;;;3.20;;
17524;SDS011;40431;52.198;9.902;2022-09-04T04:55:15;3.70;;;3.40;;
17524;SDS011;40431;52.198;9.902;2022-09-04T04:57:51;4.30;;;3.93;;
17524;SDS011;40431;52.198;9.902;2022-09-04T05:00:37;3.70;;;3.40;;
17524;SDS011;40431;52.198;9.902;2022-09-04T05:03:10;4.43;;;3.60;;
17524;SDS011;40431;52.198;9.902;2022-09-04T05:05:51;5.80;;;4.40;;
17524;SDS011;40431;52.198;9.902;2022-09-04T05:08:28;4.20;;;3.90;;
17524;SDS011;40431;52.198;9.902;2022-09-04T05:11:03;4.63;;;3.83;;
17524;SDS011;40431;52.198;9.902;2022-09-04T05:13:38;3.97;;;3.57;;
17524;SDS011;40431;52.198;9.902;2022-09-04T05:16:14;4.17;;;3.83;;
17524;SDS011;40431;52.198;9.902;2022-09-04T05:18:46;4.27;;;3.87;;
17524;SDS011;40431;52.198;9.902;2022-09-04T05:21:20;4.07;;;3.77;;
17524;SDS011;40431;52.198;9.902;2022-09-04T05:23:56;4.43;;;4.13;;
17524;SDS011;40431;52.198;9.902;2022-09-04T05:26:28;4.30;;;3.90;;
17524;SDS011;40431;52.198;9.902;2022-09-04T05:29:04;3.87;;;3.57;;
17524;SDS011;40431;52.198;9.902;2022-09-04T05:31:41;4.47;;;4.07;;
17524;SDS011;40431;52.198;9.902;2022-09-04T05:34:15;4.50;;;4.10;;
17524;SDS011;40431;52.198;9.902;2022-09-04T05:36:56;4.57;;;3.87;;
17524;SDS011;40431;52.198;9.902;2022-09-04T05:39:36;5.00;;;4.50;;
17524;SDS011;40431;52.198;9.902;2022-09-04T05:42:14;4.17;;;3.83;;
17524;SDS011;40431;52.198;9.902;2022-09-04T05:45:04;8.83;;;3.80;;
17524;SDS011;40431;52.198;9.902;2022-09-04T05:47:41;6.37;;;4.60;;
17524;SDS011;40431;52.198;9.902;2022-09-04T05:50:21;4.27;;;3.87;;
17524;SDS011;40431;52.198;9.902;2022-09-04T05:53:00;4.03;;;3.73;;
17524;SDS011;40431;52.198;9.902;2022-09-04T05:55:53;4.37;;;3.97;;
17524;SDS011;40431;52.198;9.902;2022-09-04T05:58:43;4.87;;;4.30;;
17524;SDS011;40431;52.198;9.902;2022-09-04T06:01:23;4.47;;;4.03;;
17524;SDS011;40431;52.198;9.902;2022-09-04T06:04:15;3.93;;;3.63;;
17524;SDS011;40431;52.198;9.902;2022-09-04T06:06:57;4.03;;;3.73;;
17524;SDS011;40431;52.198;9.902;2022-09-04T06:09:37;4.53;;;3.80;;
17524;SDS011;40431;52.198;9.902;2022-09-04T06:12:24;5.80;;;3.60;;
17524;SDS011;40431;52.198;9.902;2022-09-04T06:15:02;3.83;;;3.40;;
17524;SDS011;40431;52.198;9.902;2022-09-04T06:17:41;4.63;;;3.70;;
17524;SDS011;40431;52.198;9.902;2022-09-04T06:20:27;6.50;;;3.73;;
17524;SDS011;40431;52.198;9.902;2022-09-04T06:23:10;6.20;;;4.17;;
17524;SDS011;40431;52.198;9.902;2022-09-04T06:25:56;3.97;;;3.67;;
17524;SDS011;40431;52.198;9.902;2022-09-04T06:28:37;4.23;;;3.80;;
17524;SDS011;40431;52.198;9.902;2022-09-04T06:31:27;3.80;;;3.50;;
17524;SDS011;40431;52.198;9.902;2022-09-04T06:34:07;4.00;;;3.70;;
17524;SDS011;40431;52.198;9.902;2022-09-04T06:36:50;4.33;;;3.93;;
17524;SDS011;40431;52.198;9.902;2022-09-04T06:39:29;4.87;;;3.67;;
17524;SDS011;40431;52.198;9.902;2022-09-04T06:42:10;4.97;;;3.70;;
17524;SDS011;40431;52.198;9.902;2022-09-04T06:44:53;3.93;;;3.63;;
17524;SDS011;40431;52.198;9.902;2022-09-04T06:47:33;4.93;;;4.17;;
17524;SDS011;40431;52.198;9.902;2022-09-04T06:50:14;11.47;;;3.90;;
17524;SDS011;40431;52.198;9.902;2022-09-04T06:52:52;4.23;;;3.83;;
17524;SDS011;40431;52.198;9.902;2022-09-04T06:55:27;4.93;;;3.97;;
17524;SDS011;40431;52.198;9.902;2022-09-04T06:58:17;4.07;;;3.60;;
17524;SDS011;40431;52.198;9.902;2022-09-04T07:01:06;4.33;;;3.70;;
17524;SDS011;40431;52.198;9.902;2022-09-04T07:03:43;6.30;;;3.70;;
17524;SDS011;40431;52.198;9.902;2022-09-04T07:06:21;3.63;;;3.37;;
17524;SDS011;40431;52.198;9.902;2022-09-04T07:08:56;4.37;;;4.07;;
17524;SDS011;40431;52.198;9.902;2022-09-04T07:11:34;4.17;;;3.73;;
17524;SDS011;40431;52.198;9.902;2022-09-04T07:14:21;4.10;;;3.80;;
17524;SDS011;40431;52.198;9.902;2022-09-04T07:17:00;4.13;;;3.63;;
17524;SDS011;40431;52.198;9.902;2022-09-04T07:22:27;5.60;;;4.30;;
17524;SDS011;40431;52.198;9.902;2022-09-04T07:25:09;4.00;;;3.70;;
17524;SDS011;40431;52.198;9.902;2022-09-04T07:27:43;3.63;;;3.33;;
17524;SDS011;40431;52.198;9.902;2022-09-04T07:30:20;4.73;;;4.33;;
17524;SDS011;40431;52.198;9.902;2022-09-04T07:32:52;4.27;;;3.90;;
17524;SDS011;40431;52.198;9.902;2022-09-04T07:35:23;3.90;;;3.60;;
17524;SDS011;40431;52.198;9.902;2022-09-04T07:37:56;4.43;;;4.13;;
17524;SDS011;40431;52.198;9.902;2022-09-04T07:40:29;4.13;;;3.73;;
17524;SDS011;40431;52.198;9.902;2022-09-04T07:43:02;3.90;;;3.53;;
17524;SDS011;40431;52.198;9.902;2022-09-04T07:45:36;6.60;;;4.47;;
17524;SDS011;40431;52.198;9.902;2022-09-04T07:48:10;5.63;;;4.37;;
17524;SDS011;40431;52.198;9.902;2022-09-04T07:50:49;4.03;;;3.73;;
17524;SDS011;40431;52.198;9.902;2022-09-04T07:53:30;4.30;;;3.90;;
17524;SDS011;40431;52.198;9.902;2022-09-04T07:56:11;6.30;;;3.83;;
17524;SDS011;40431;52.198;9.902;2022-09-04T08:01:57;5.13;;;4.10;;
17524;SDS011;40431;52.198;9.902;2022-09-04T08:04:41;4.63;;;3.20;;
17524;SDS011;40431;52.198;9.902;2022-09-04T08:07:44;4.47;;;4.00;;
17524;SDS011;40431;52.198;9.902;2022-09-04T08:10:28;7.07;;;4.10;;
17524;SDS011;40431;52.198;9.902;2022-09-04T08:13:03;4.17;;;3.77;;
17524;SDS011;40431;52.198;9.902;2022-09-04T08:15:39;4.10;;;3.70;;
17524;SDS011;40431;52.198;9.902;2022-09-04T08:18:14;3.90;;;3.20;;
17524;SDS011;40431;52.198;9.902;2022-09-04T08:20:50;4.10;;;3.80;;
17524;SDS011;40431;52.198;9.902;2022-09-04T08:23:27;3.80;;;3.50;;
17524;SDS011;40431;52.198;9.902;2022-09-04T08:26:08;4.17;;;3.70;;
17524;SDS011;40431;52.198;9.902;2022-09-04T08:28:45;4.23;;;3.80;;
17524;SDS011;40431;52.198;9.902;2022-09-04T08:31:24;3.67;;;3.23;;
17524;SDS011;40431;52.198;9.902;2022-09-04T08:33:59;3.93;;;3.47;;
17524;SDS011;40431;52.198;9.902;2022-09-04T08:36:49;4.03;;;3.60;;
17524;SDS011;40431;52.198;9.902;2022-09-04T08:39:28;3.57;;;3.27;;
17524;SDS011;40431;52.198;9.902;2022-09-04T08:42:11;3.77;;;3.47;;
17524;SDS011;40431;52.198;9.902;2022-09-04T08:50:56;3.67;;;3.37;;
17524;SDS011;40431;52.198;9.902;2022-09-04T08:56:40;3.43;;;3.10;;
17524;SDS011;40431;52.198;9.902;2022-09-04T09:02:35;4.13;;;3.17;;
17524;SDS011;40431;52.198;9.902;2022-09-04T09:05:31;4.30;;;3.40;;
17524;SDS011;40431;52.198;9.902;2022-09-04T09:11:40;3.93;;;3.40;;
17524;SDS011;40431;52.198;9.902;2022-09-04T09:14:49;5.87;;;3.47;;
17524;SDS011;40431;52.198;9.902;2022-09-04T09:17:35;6.60;;;3.33;;
17524;SDS011;40431;52.198;9.902;2022-09-04T09:20:16;4.57;;;3.60;;
17524;SDS011;40431;52.198;9.902;2022-09-04T09:25:50;3.47;;;3.27;;
17524;SDS011;40431;52.198;9.902;2022-09-04T09:28:38;3.80;;;3.10;;
17524;SDS011;40431;52.198;9.902;2022-09-04T09:31:39;4.03;;;3.33;;
17524;SDS011;40431;52.198;9.902;2022-09-04T09:34:50;3.83;;;3.53;;
17524;SDS011;40431;52.198;9.902;2022-09-04T09:37:56;5.00;;;3.87;;
17524;SDS011;40431;52.198;9.902;2022-09-04T09:46:48;4.40;;;4.00;;
17524;SDS011;40431;52.198;9.902;2022-09-04T09:49:46;5.13;;;3.43;;
17524;SDS011;40431;52.198;9.902;2022-09-04T09:52:34;4.00;;;3.57;;
17524;SDS011;40431;52.198;9.902;2022-09-04T09:55:24;7.00;;;4.13;;
17524;SDS011;40431;52.198;9.902;2022-09-04T09:58:21;3.40;;;3.10;;
17524;SDS011;40431;52.198;9.902;2022-09-04T10:01:12;3.83;;;3.53;;
17524;SDS011;40431;52.198;9.902;2022-09-04T10:03:55;4.33;;;3.57;;
17524;SDS011;40431;52.198;9.902;2022-09-04T10:06:51;3.73;;;3.30;;
17524;SDS011;40431;52.198;9.902;2022-09-04T10:09:45;6.47;;;4.03;;
17524;SDS011;40431;52.198;9.902;2022-09-04T10:15:43;4.23;;;3.20;;
17524;SDS011;40431;52.198;9.902;2022-09-04T10:21:49;3.83;;;2.90;;
17524;SDS011;40431;52.198;9.902;2022-09-04T10:24:42;6.03;;;3.23;;
17524;SDS011;40431;52.198;9.902;2022-09-04T10:27:25;3.50;;;3.20;;
17524;SDS011;40431;52.198;9.902;2022-09-04T10:30:03;3.47;;;3.17;;
17524;SDS011;40431;52.198;9.902;2022-09-04T10:32:36;4.33;;;3.00;;
17524;SDS011;40431;52.198;9.902;2022-09-04T10:35:29;3.57;;;2.67;;
17524;SDS011;40431;52.198;9.902;2022-09-04T10:41:33;3.47;;;3.10;;
17524;SDS011;40431;52.198;9.902;2022-09-04T10:44:35;3.03;;;2.83;;
17524;SDS011;40431;52.198;9.902;2022-09-04T10:47:12;5.63;;;3.50;;
17524;SDS011;40431;52.198;9.902;2022-09-04T10:49:54;3.23;;;2.93;;
17524;SDS011;40431;52.198;9.902;2022-09-04T10:52:45;3.87;;;2.93;;
17524;SDS011;40431;52.198;9.902;2022-09-04T10:55:33;2.90;;;2.70;;
17524;SDS011;40431;52.198;9.902;2022-09-04T10:58:22;4.73;;;3.13;;
17524;SDS011;40431;52.198;9.902;2022-09-04T11:01:07;5.40;;;2.50;;
17524;SDS011;40431;52.198;9.902;2022-09-04T11:03:56;3.57;;;3.23;;
17524;SDS011;40431;52.198;9.902;2022-09-04T11:09:46;3.67;;;2.70;;
17524;SDS011;40431;52.198;9.902;2022-09-04T11:12:41;3.10;;;2.37;;
17524;SDS011;40431;52.198;9.902;2022-09-04T11:18:37;3.53;;;2.50;;
17524;SDS011;40431;52.198;9.902;2022-09-04T11:21:36;4.83;;;2.60;;
17524;SDS011;40431;52.198;9.902;2022-09-04T11:24:31;3.43;;;3.03;;
17524;SDS011;40431;52.198;9.902;2022-09-04T11:30:26;2.77;;;2.57;;
17524;SDS011;40431;52.198;9.902;2022-09-04T11:33:24;4.63;;;2.90;;
17524;SDS011;40431;52.198;9.902;2022-09-04T11:39:36;3.33;;;2.97;;
17524;SDS011;40431;52.198;9.902;2022-09-04T11:42:26;3.57;;;2.30;;
17524;SDS011;40431;52.198;9.902;2022-09-04T11:50:50;3.00;;;2.30;;
17524;SDS011;40431;52.198;9.902;2022-09-04T11:53:56;2.53;;;2.20;;
17524;SDS011;40431;52.198;9.902;2022-09-04T11:56:41;2.40;;;2.20;;
17524;SDS011;40431;52.198;9.902;2022-09-04T11:59:35;3.23;;;2.33;;
17524;SDS011;40431;52.198;9.902;2022-09-04T12:02:21;4.10;;;2.80;;
17524;SDS011;40431;52.198;9.902;2022-09-04T12:05:09;5.10;;;2.60;;
17524;SDS011;40431;52.198;9.902;2022-09-04T12:07:47;4.20;;;2.43;;
17524;SDS011;40431;52.198;9.902;2022-09-04T12:10:33;2.93;;;2.70;;
17524;SDS011;40431;52.198;9.902;2022-09-04T12:16:24;2.50;;;2.30;;
17524;SDS011;40431;52.198;9.902;2022-09-04T12:22:23;2.90;;;2.10;;
17524;SDS011;40431;52.198;9.902;2022-09-04T12:25:19;2.43;;;2.23;;
17524;SDS011;40431;52.198;9.902;2022-09-04T12:28:29;2.50;;;2.17;;
17524;SDS011;40431;52.198;9.902;2022-09-04T12:31:10;2.83;;;2.20;;
17524;SDS011;40431;52.198;9.902;2022-09-04T12:33:53;3.10;;;2.20;;
17524;SDS011;40431;52.198;9.902;2022-09-04T12:40:04;3.90;;;2.60;;
17524;SDS011;40431;52.198;9.902;2022-09-04T12:42:47;3.00;;;2.27;;
17524;SDS011;40431;52.198;9.902;2022-09-04T12:45:23;2.73;;;2.30;;
17524;SDS011;40431;52.198;9.902;2022-09-04T12:47:58;6.93;;;2.43;;
17524;SDS011;40431;52.198;9.902;2022-09-04T12:50:37;2.53;;;2.33;;
17524;SDS011;40431;52.198;9.902;2022-09-04T12:53:16;2.70;;;2.50;;
17524;SDS011;40431;52.198;9.902;2022-09-04T12:55:54;2.17;;;2.00;;
17524;SDS011;40431;52.198;9.902;2022-09-04T12:58:32;2.90;;;2.40;;
17524;SDS011;40431;52.198;9.902;2022-09-04T13:01:10;2.40;;;2.20;;
17524;SDS011;40431;52.198;9.902;2022-09-04T13:03:45;2.47;;;2.27;;
17524;SDS011;40431;52.198;9.902;2022-09-04T13:06:21;1.80;;;1.70;;
17524;SDS011;40431;52.198;9.902;2022-09-04T13:09:01;2.13;;;2.03;;
17524;SDS011;40431;52.198;9.902;2022-09-04T13:11:39;3.97;;;2.00;;
17524;SDS011;40431;52.198;9.902;2022-09-04T13:14:41;2.27;;;2.07;;
17524;SDS011;40431;52.198;9.902;2022-09-04T13:17:22;4.87;;;2.20;;
17524;SDS011;40431;52.198;9.902;2022-09-04T13:19:56;2.77;;;2.23;;
17524;SDS011;40431;52.198;9.902;2022-09-04T13:22:35;2.40;;;2.10;;
17524;SDS011;40431;52.198;9.902;2022-09-04T13:25:13;3.67;;;2.03;;
17524;SDS011;40431;52.198;9.902;2022-09-04T13:27:52;2.30;;;2.10;;
17524;SDS011;40431;52.198;9.902;2022-09-04T13:30:28;2.30;;;2.10;;
17524;SDS011;40431;52.198;9.902;2022-09-04T13:33:08;3.00;;;2.30;;
17524;SDS011;40431;52.198;9.902;2022-09-04T13:36:07;2.37;;;2.20;;
17524;SDS011;40431;52.198;9.902;2022-09-04T13:41:50;2.47;;;2.27;;
17524;SDS011;40431;52.198;9.902;2022-09-04T13:44:42;2.30;;;2.10;;
17524;SDS011;40431;52.198;9.902;2022-09-04T13:47:20;3.17;;;2.37;;
17524;SDS011;40431;52.198;9.902;2022-09-04T13:49:49;2.27;;;1.93;;
17524;SDS011;40431;52.198;9.902;2022-09-04T13:52:20;2.13;;;1.93;;
17524;SDS011;40431;52.198;9.902;2022-09-04T13:54:52;2.60;;;2.10;;
17524;SDS011;40431;52.198;9.902;2022-09-04T13:57:25;2.57;;;2.33;;
17524;SDS011;40431;52.198;9.902;2022-09-04T13:59:55;3.23;;;2.10;;
17524;SDS011;40431;52.198;9.902;2022-09-04T14:02:27;3.63;;;2.17;;
17524;SDS011;40431;52.198;9.902;2022-09-04T14:04:56;2.20;;;1.80;;
17524;SDS011;40431;52.198;9.902;2022-09-04T14:07:30;2.53;;;2.13;;
17524;SDS011;40431;52.198;9.902;2022-09-04T14:10:00;2.60;;;2.13;;
17524;SDS011;40431;52.198;9.902;2022-09-04T14:12:35;2.60;;;2.27;;
17524;SDS011;40431;52.198;9.902;2022-09-04T14:15:17;3.07;;;2.30;;
17524;SDS011;40431;52.198;9.902;2022-09-04T14:17:57;2.57;;;2.20;;
17524;SDS011;40431;52.198;9.902;2022-09-04T14:20:40;2.43;;;2.10;;
17524;SDS011;40431;52.198;9.902;2022-09-04T14:23:16;2.10;;;1.90;;
17524;SDS011;40431;52.198;9.902;2022-09-04T14:25:53;1.87;;;1.77;;
17524;SDS011;40431;52.198;9.902;2022-09-04T14:28:28;2.10;;;1.90;;
17524;SDS011;40431;52.198;9.902;2022-09-04T14:31:03;2.73;;;2.00;;
17524;SDS011;40431;52.198;9.902;2022-09-04T14:33:40;2.80;;;1.70;;
17524;SDS011;40431;52.198;9.902;2022-09-04T14:36:15;2.90;;;1.80;;
17524;SDS011;40431;52.198;9.902;2022-09-04T14:38:59;2.73;;;1.90;;
17524;SDS011;40431;52.198;9.902;2022-09-04T14:41:40;2.83;;;2.23;;
17524;SDS011;40431;52.198;9.902;2022-09-04T14:44:18;2.60;;;1.73;;
17524;SDS011;40431;52.198;9.902;2022-09-04T14:47:01;3.70;;;2.23;;
17524;SDS011;40431;52.198;9.902;2022-09-04T14:49:37;2.80;;;2.33;;
17524;SDS011;40431;52.198;9.902;2022-09-04T14:52:09;2.27;;;1.90;;
17524;SDS011;40431;52.198;9.902;2022-09-04T14:54:42;2.17;;;1.97;;
17524;SDS011;40431;52.198;9.902;2022-09-04T14:57:11;4.80;;;2.50;;
17524;SDS011;40431;52.198;9.902;2022-09-04T14:59:45;1.87;;;1.77;;
17524;SDS011;40431;52.198;9.902;2022-09-04T15:02:23;2.13;;;2.03;;
17524;SDS011;40431;52.198;9.902;2022-09-04T15:04:58;2.53;;;2.07;;
17524;SDS011;40431;52.198;9.902;2022-09-04T15:07:29;2.47;;;2.13;;
17524;SDS011;40431;52.198;9.902;2022-09-04T15:10:15;2.07;;;1.87;;
17524;SDS011;40431;52.198;9.902;2022-09-04T15:12:48;2.80;;;2.00;;
17524;SDS011;40431;52.198;9.902;2022-09-04T15:15:22;2.43;;;2.23;;
17524;SDS011;40431;52.198;9.902;2022-09-04T15:17:56;2.67;;;1.87;;
17524;SDS011;40431;52.198;9.902;2022-09-04T15:20:28;2.50;;;2.20;;
17524;SDS011;40431;52.198;9.902;2022-09-04T15:23:01;2.23;;;1.90;;
17524;SDS011;40431;52.198;9.902;2022-09-04T15:25:42;3.17;;;2.03;;
17524;SDS011;40431;52.198;9.902;2022-09-04T15:28:15;3.53;;;1.90;;
17524;SDS011;40431;52.198;9.902;2022-09-04T15:30:58;2.27;;;2.07;;
17524;SDS011;40431;52.198;9.902;2022-09-04T15:33:29;3.77;;;2.20;;
17524;SDS011;40431;52.198;9.902;2022-09-04T15:36:00;3.27;;;1.97;;
17524;SDS011;40431;52.198;9.902;2022-09-04T15:38:32;1.90;;;1.80;;
17524;SDS011;40431;52.198;9.902;2022-09-04T15:41:01;2.60;;;2.13;;
17524;SDS011;40431;52.198;9.902;2022-09-04T15:43:36;2.03;;;1.80;;
17524;SDS011;40431;52.198;9.902;2022-09-04T15:46:10;4.07;;;1.90;;
17524;SDS011;40431;52.198;9.902;2022-09-04T15:48:47;2.30;;;2.20;;
17524;SDS011;40431;52.198;9.902;2022-09-04T15:51:22;3.17;;;2.10;;
17524;SDS011;40431;52.198;9.902;2022-09-04T15:54:11;5.80;;;2.53;;
17524;SDS011;40431;52.198;9.902;2022-09-04T15:56:47;5.93;;;2.10;;
17524;SDS011;40431;52.198;9.902;2022-09-04T15:59:24;2.10;;;1.90;;
17524;SDS011;40431;52.198;9.902;2022-09-04T16:02:05;2.10;;;1.90;;
17524;SDS011;40431;52.198;9.902;2022-09-04T16:04:45;1.90;;;1.80;;
17524;SDS011;40431;52.198;9.902;2022-09-04T16:07:26;2.90;;;2.10;;
17524;SDS011;40431;52.198;9.902;2022-09-04T16:10:01;4.63;;;2.20;;
17524;SDS011;40431;52.198;9.902;2022-09-04T16:12:34;3.80;;;2.10;;
17524;SDS011;40431;52.198;9.902;2022-09-04T16:15:04;2.97;;;2.27;;
17524;SDS011;40431;52.198;9.902;2022-09-04T16:17:39;2.53;;;2.33;;
17524;SDS011;40431;52.198;9.902;2022-09-04T16:20:10;2.43;;;2.00;;
17524;SDS011;40431;52.198;9.902;2022-09-04T16:22:46;2.60;;;2.40;;
17524;SDS011;40431;52.198;9.902;2022-09-04T16:25:20;3.00;;;2.20;;
17524;SDS011;40431;52.198;9.902;2022-09-04T16:27:52;3.00;;;1.70;;
17524;SDS011;40431;52.198;9.902;2022-09-04T16:30:29;2.30;;;2.10;;
17524;SDS011;40431;52.198;9.902;2022-09-04T16:33:00;3.93;;;2.23;;
17524;SDS011;40431;52.198;9.902;2022-09-04T16:35:30;2.30;;;2.20;;
17524;SDS011;40431;52.198;9.902;2022-09-04T16:38:02;3.00;;;2.33;;
17524;SDS011;40431;52.198;9.902;2022-09-04T16:40:34;3.27;;;2.20;;
17524;SDS011;40431;52.198;9.902;2022-09-04T16:43:07;3.00;;;2.43;;
17524;SDS011;40431;52.198;9.902;2022-09-04T16:45:42;3.30;;;2.07;;
17524;SDS011;40431;52.198;9.902;2022-09-04T16:48:16;2.30;;;2.10;;
17524;SDS011;40431;52.198;9.902;2022-09-04T16:50:50;3.83;;;2.27;;
17524;SDS011;40431;52.198;9.902;2022-09-04T16:53:23;2.40;;;2.20;;
17524;SDS011;40431;52.198;9.902;2022-09-04T16:55:57;2.53;;;2.30;;
17524;SDS011;40431;52.198;9.902;2022-09-04T16:58:29;3.33;;;2.20;;
17524;SDS011;40431;52.198;9.902;2022-09-04T17:01:14;2.47;;;2.33;;
17524;SDS011;40431;52.198;9.902;2022-09-04T17:03:50;2.93;;;2.13;;
17524;SDS011;40431;52.198;9.902;2022-09-04T17:06:24;2.60;;;2.40;;
17524;SDS011;40431;52.198;9.902;2022-09-04T17:08:56;2.60;;;2.40;;
17524;SDS011;40431;52.198;9.902;2022-09-04T17:11:35;3.63;;;2.47;;
17524;SDS011;40431;52.198;9.902;2022-09-04T17:14:09;3.37;;;2.67;;
17524;SDS011;40431;52.198;9.902;2022-09-04T17:16:47;3.77;;;2.40;;